Time;durP1;ratioP1;P1;durP2;ratioP2;P2;SDS_P1;SDS_P2;PMS_P1;PMS_P2;Temp;Humidity;BMP_temperature;BMP_pressure;BME280_temperature;BME280_humidity;BME280_pressure;Samples;Min_cycle;Max_cycle;Signal;HPM_P1;HPM_P2
2023/12/07 00:02:13;;;;;;;;;;;20.70;58.10;;;;;;5098257;28;19912;-38
2023/12/07 00:04:38;;;;;;;;;;;20.80;57.90;;;;;;5101753;28;19923;-38
2023/12/07 00:07:04;;;;;;;;;;;20.80;57.90;;;;;;5098029;28;19915;-39
2023/12/07 00:09:30;;;;;;;;;;;20.80;58.10;;;;;;5098105;28;19916;-39
2023/12/07 00:11:56;;;;;;;;;;;20.80;58.30;;;;;;5096642;28;19918;-39
2023/12/07 00:14:22;;;;;;;;;;;20.80;58.50;;;;;;5098209;28;19908;-40
2023/12/07 00:16:48;;;;;;;;;;;20.70;58.90;;;;;;5100119;28;19908;-39
2023/12/07 00:19:14;;;;;;;;;;;20.70;58.80;;;;;;5099683;28;19912;-38
2023/12/07 00:21:40;;;;;;;;;;;20.70;58.30;;;;;;5101604;28;19975;-39
2023/12/07 00:24:06;;;;;;;;;;;20.80;58.30;;;;;;5097580;28;19923;-39
2023/12/07 00:26:32;;;;;;;;;;;20.90;58.20;;;;;;5094459;28;20372;-39
2023/12/07 00:28:58;;;;;;;;;;;20.80;58.20;;;;;;5096561;28;19912;-39
2023/12/07 00:31:24;;;;;;;;;;;20.80;58.30;;;;;;5096299;28;19907;-39
2023/12/07 00:33:50;;;;;;;;;;;20.80;58.40;;;;;;5097970;28;19920;-40
2023/12/07 00:36:16;;;;;;;;;;;20.70;58.30;;;;;;5097387;28;19916;-39
2023/12/07 00:38:42;;;;;;;;;;;20.70;58.10;;;;;;5101586;28;20793;-39
2023/12/07 00:41:08;;;;;;;;;;;20.80;58.10;;;;;;5084406;28;19912;-39
2023/12/07 00:43:34;;;;;;;;;;;20.80;58.10;;;;;;5099987;28;19916;-39
2023/12/07 00:46:00;;;;;;;;;;;20.80;58.00;;;;;;5099803;28;19919;-39
2023/12/07 00:48:26;;;;;;;;;;;20.80;58.20;;;;;;5105106;28;19912;-38
2023/12/07 00:50:52;;;;;;;;;;;20.80;58.30;;;;;;5100859;28;20384;-39
2023/12/07 00:53:18;;;;;;;;;;;20.70;58.30;;;;;;5098613;28;19923;-39
2023/12/07 00:55:44;;;;;;;;;;;20.70;58.20;;;;;;5099475;28;19916;-39
2023/12/07 00:58:10;;;;;;;;;;;20.70;58.20;;;;;;5101357;28;19923;-39
2023/12/07 01:00:37;;;;;;;;;;;20.80;58.20;;;;;;5100037;28;19963;-39
2023/12/07 01:03:03;;;;;;;;;;;20.80;58.10;;;;;;5101667;28;19913;-39
2023/12/07 01:05:33;;;;;;;;;;;20.80;58.20;;;;;;5100826;28;19923;-39
2023/12/07 01:08:00;;;;;;;;;;;20.80;58.30;;;;;;5102262;28;19955;-39
2023/12/07 01:10:26;;;;;;;;;;;20.70;58.30;;;;;;5104582;28;19984;-39
2023/12/07 01:12:53;;;;;;;;;;;20.70;58.20;;;;;;5105006;28;19961;-39
2023/12/07 01:15:19;;;;;;;;;;;20.70;58.50;;;;;;5102873;28;19962;-39
2023/12/07 01:17:49;;;;;;;;;;;20.80;58.10;;;;;;5105682;28;20010;-39
2023/12/07 01:20:17;;;;;;;;;;;20.80;58.20;;;;;;5103309;28;19951;-39
2023/12/07 01:22:45;;;;;;;;;;;20.80;58.20;;;;;;5100835;28;19916;-39
2023/12/07 01:25:12;;;;;;;;;;;20.80;58.30;;;;;;5104488;28;19984;-39
2023/12/07 01:27:38;;;;;;;;;;;20.80;58.20;;;;;;5105332;28;20675;-39
2023/12/07 01:30:05;;;;;;;;;;;20.70;58.10;;;;;;5095817;28;19912;-39
2023/12/07 01:32:31;;;;;;;;;;;20.70;58.20;;;;;;5101447;28;20433;-39
2023/12/07 01:34:57;;;;;;;;;;;20.70;58.10;;;;;;5104377;28;19912;-39
2023/12/07 01:37:24;;;;;;;;;;;20.70;58.20;;;;;;5104128;28;19912;-39
2023/12/07 01:39:50;;;;;;;;;;;20.80;58.20;;;;;;5100302;28;19915;-39
2023/12/07 01:42:16;;;;;;;;;;;20.80;58.10;;;;;;5097651;28;19943;-39
2023/12/07 01:44:42;;;;;;;;;;;20.80;58.30;;;;;;5103569;28;19927;-39
2023/12/07 01:47:08;;;;;;;;;;;20.80;58.20;;;;;;5095301;28;19911;-39
2023/12/07 01:49:34;;;;;;;;;;;20.70;58.50;;;;;;5098387;28;19908;-38
2023/12/07 01:52:39;;;;;;;3.35;0.50;;;20.70;52.00;;;;;;5125489;27;20399;-39
2023/12/07 01:55:05;;;;;;;2.83;0.40;;;20.80;52.60;;;;;;5116363;27;20057;-39
2023/12/07 01:57:33;;;;;;;3.20;0.30;;;20.80;52.40;;;;;;5116784;28;20023;-39
2023/12/07 01:59:59;;;;;;;0.35;0.30;;;20.80;52.30;;;;;;5117218;28;20042;-39
2023/12/07 02:02:25;;;;;;;3.05;0.50;;;20.80;52.30;;;;;;5118698;28;20153;-39
2023/12/07 02:04:51;;;;;;;0.65;0.30;;;20.70;52.20;;;;;;5119717;28;20035;-39
2023/12/07 02:07:17;;;;;;;1.45;0.55;;;20.70;52.20;;;;;;5119430;28;20030;-39
2023/12/07 02:09:44;;;;;;;0.55;0.40;;;20.70;52.20;;;;;;5117615;28;20507;-39
2023/12/07 02:12:10;;;;;;;1.02;0.40;;;20.70;52.10;;;;;;5116862;28;20047;-39
2023/12/07 02:14:36;;;;;;;0.45;0.45;;;20.80;52.10;;;;;;5117351;28;20098;-39
2023/12/07 02:17:10;;;;;;;0.75;0.47;;;20.80;52.10;;;;;;5112488;28;20019;-39
2023/12/07 02:19:38;;;;;;;2.20;0.40;;;20.80;52.10;;;;;;5116271;28;20107;-39
2023/12/07 02:22:14;;;;;;;0.68;0.30;;;20.80;52.40;;;;;;5114317;28;20543;-38
2023/12/07 02:24:43;;;;;;;1.00;0.57;;;20.70;52.40;;;;;;5112742;28;20039;-39
2023/12/07 02:27:10;;;;;;;0.63;0.40;;;20.70;52.40;;;;;;5115779;28;20047;-39
2023/12/07 02:29:36;;;;;;;0.50;0.40;;;20.70;52.30;;;;;;5116894;28;20063;-39
2023/12/07 02:32:02;;;;;;;0.88;0.45;;;20.70;52.10;;;;;;5114800;28;20039;-39
2023/12/07 02:34:28;;;;;;;1.90;0.40;;;20.80;52.40;;;;;;5106545;28;20033;-39
2023/12/07 02:36:55;;;;;;;1.35;0.50;;;20.80;52.30;;;;;;5118415;28;20030;-38
2023/12/07 02:39:21;;;;;;;0.40;0.40;;;20.80;52.40;;;;;;5115881;28;20028;-38
2023/12/07 02:41:47;;;;;;;1.27;0.43;;;20.80;52.40;;;;;;5117843;28;20144;-38
2023/12/07 02:44:13;;;;;;;2.05;0.57;;;20.70;52.50;;;;;;5114457;28;20043;-38
2023/12/07 02:46:40;;;;;;;0.70;0.50;;;20.70;52.30;;;;;;5110313;28;20028;-39
2023/12/07 02:49:06;;;;;;;0.77;0.50;;;20.60;52.40;;;;;;5110177;28;20046;-39
2023/12/07 02:51:32;;;;;;;0.40;0.40;;;20.70;52.40;;;;;;5114955;28;20063;-39
2023/12/07 02:53:59;;;;;;;0.45;0.35;;;20.80;52.50;;;;;;5111477;28;20024;-39
2023/12/07 02:56:25;;;;;;;1.10;0.40;;;20.90;52.20;;;;;;5118412;28;20174;-39
2023/12/07 02:58:51;;;;;;;0.73;0.50;;;20.80;52.40;;;;;;5109613;28;20029;-39
2023/12/07 03:01:17;;;;;;;0.43;0.30;;;20.70;52.40;;;;;;5113233;28;20024;-39
2023/12/07 03:03:43;;;;;;;0.85;0.30;;;20.70;52.40;;;;;;5097858;28;20035;-39
2023/12/07 03:06:09;;;;;;;0.85;0.40;;;20.60;52.30;;;;;;5101230;28;20053;-39
2023/12/07 03:08:36;;;;;;;0.60;0.40;;;20.70;52.30;;;;;;5100791;28;20028;-39
2023/12/07 03:11:02;;;;;;;0.50;0.45;;;20.80;52.30;;;;;;5100415;28;20147;-39
2023/12/07 03:13:28;;;;;;;0.45;0.32;;;20.80;52.40;;;;;;5103360;28;20024;-39
2023/12/07 03:15:54;;;;;;;1.10;0.30;;;20.80;52.50;;;;;;5101313;28;20032;-39
2023/12/07 03:18:40;;;;;;;0.38;0.38;;;20.80;52.50;;;;;;5038827;28;20052;-39
2023/12/07 03:21:07;;;;;;;0.82;0.50;;;20.70;52.40;;;;;;5033632;28;20053;-39
2023/12/07 03:23:34;;;;;;;0.40;0.40;;;20.60;52.40;;;;;;5033537;28;20065;-39
2023/12/07 03:26:01;;;;;;;0.77;0.47;;;20.60;52.50;;;;;;5043166;28;20026;-38
2023/12/07 03:28:27;;;;;;;1.58;0.40;;;20.60;52.50;;;;;;5037136;28;20039;-38
2023/12/07 03:30:53;;;;;;;0.45;0.40;;;20.70;52.40;;;;;;5037034;28;20046;-39
2023/12/07 03:33:19;;;;;;;0.70;0.40;;;20.80;52.30;;;;;;5042956;28;20039;-38
2023/12/07 03:35:46;;;;;;;0.50;0.45;;;20.80;52.30;;;;;;5044098;28;20048;-38
2023/12/07 03:38:12;;;;;;;0.80;0.45;;;20.80;52.30;;;;;;5038754;28;20033;-38
2023/12/07 03:40:38;;;;;;;0.98;0.40;;;20.70;52.10;;;;;;5049881;28;20029;-38
2023/12/07 03:43:04;;;;;;;0.50;0.30;;;20.70;52.10;;;;;;5043586;28;20060;-38
2023/12/07 03:45:31;;;;;;;0.40;0.30;;;20.60;51.90;;;;;;5037772;28;20033;-38
2023/12/07 03:47:57;;;;;;;0.50;0.40;;;20.70;51.90;;;;;;5039918;28;20052;-38
2023/12/07 03:50:23;;;;;;;0.60;0.47;;;20.80;51.90;;;;;;5041722;28;20048;-38
2023/12/07 03:52:49;;;;;;;0.38;0.32;;;20.70;52.00;;;;;;5043500;28;20079;-38
2023/12/07 03:55:16;;;;;;;0.40;0.40;;;20.70;52.00;;;;;;5057155;28;20039;-38
2023/12/07 03:57:42;;;;;;;0.68;0.40;;;20.60;51.90;;;;;;5104930;28;20015;-39
2023/12/07 04:00:11;;;;;;;0.70;0.50;;;20.60;52.00;;;;;;5100996;28;20028;-39
2023/12/07 04:02:37;;;;;;;0.30;0.30;;;20.60;51.90;;;;;;5101205;28;20032;-39
2023/12/07 04:05:04;;;;;;;0.30;0.30;;;20.70;51.90;;;;;;5101230;28;20097;-38
2023/12/07 04:07:30;;;;;;;0.30;0.30;;;20.80;52.00;;;;;;5101090;28;20083;-38
2023/12/07 04:09:59;;;;;;;0.57;0.50;;;20.80;52.00;;;;;;5099252;28;20272;-38
2023/12/07 04:12:25;;;;;;;0.40;0.40;;;20.70;52.00;;;;;;5097138;28;20044;-38
2023/12/07 04:14:52;;;;;;;0.63;0.40;;;20.70;52.00;;;;;;5099102;28;20016;-47
2023/12/07 04:17:18;;;;;;;0.65;0.40;;;20.60;51.90;;;;;;5101986;28;20032;-38
2023/12/07 04:19:44;;;;;;;0.70;0.50;;;20.60;51.90;;;;;;5100434;28;20024;-37
2023/12/07 04:22:10;;;;;;;3.13;0.60;;;20.70;52.00;;;;;;5099403;28;20512;-40
2023/12/07 04:24:36;;;;;;;1.15;0.45;;;20.70;52.10;;;;;;5099944;28;20035;-39
2023/12/07 04:27:02;;;;;;;1.10;0.60;;;20.70;52.10;;;;;;5098689;28;20028;-40
2023/12/07 04:29:29;;;;;;;1.00;0.40;;;20.60;52.30;;;;;;5101314;28;20380;-39
2023/12/07 04:31:55;;;;;;;0.40;0.35;;;20.60;52.50;;;;;;5099088;28;20051;-39
2023/12/07 04:34:22;;;;;;;0.95;0.50;;;20.50;52.40;;;;;;5099552;28;20028;-39
2023/12/07 04:36:49;;;;;;;0.65;0.40;;;20.60;52.70;;;;;;5096364;28;20060;-39
2023/12/07 04:39:16;;;;;;;0.85;0.50;;;20.60;52.60;;;;;;5098230;28;20020;-39
2023/12/07 04:41:43;;;;;;;0.60;0.50;;;20.60;52.60;;;;;;5100934;28;20063;-39
2023/12/07 04:44:10;;;;;;;1.02;0.50;;;20.70;52.60;;;;;;5100071;28;20101;-39
2023/12/07 04:46:36;;;;;;;1.48;0.40;;;20.60;52.70;;;;;;5096590;28;20053;-39
2023/12/07 04:49:03;;;;;;;0.68;0.60;;;20.50;52.70;;;;;;5101652;28;20034;-39
2023/12/07 04:51:29;;;;;;;1.00;0.47;;;20.40;52.60;;;;;;5102798;28;20047;-39
2023/12/07 04:53:55;;;;;;;0.60;0.50;;;20.50;52.80;;;;;;5099011;28;20024;-39
2023/12/07 04:56:21;;;;;;;0.40;0.40;;;20.60;52.80;;;;;;5101036;28;20039;-46
2023/12/07 04:58:47;;;;;;;1.05;0.60;;;20.60;52.90;;;;;;5101112;28;20028;-39
2023/12/07 05:01:13;;;;;;;0.75;0.60;;;20.60;52.90;;;;;;5102802;28;20031;-39
2023/12/07 05:03:40;;;;;;;1.52;0.70;;;20.60;52.90;;;;;;5094752;28;20095;-39
2023/12/07 05:06:07;;;;;;;1.00;0.47;;;20.50;52.80;;;;;;5099372;28;20035;-39
2023/12/07 05:08:33;;;;;;;1.92;0.50;;;20.50;53.00;;;;;;5097876;28;20419;-39
2023/12/07 05:10:59;;;;;;;1.98;0.40;;;20.50;53.00;;;;;;5100312;28;20122;-37
2023/12/07 05:13:26;;;;;;;2.17;0.57;;;20.60;52.80;;;;;;5099257;28;20107;-38
2023/12/07 05:15:52;;;;;;;1.00;0.50;;;20.70;52.60;;;;;;5097395;28;20023;-37
2023/12/07 05:18:18;;;;;;;1.13;0.60;;;20.70;52.50;;;;;;5098730;28;20020;-38
2023/12/07 05:20:44;;;;;;;0.55;0.40;;;20.60;52.70;;;;;;5099580;28;20058;-37
2023/12/07 05:23:10;;;;;;;0.70;0.50;;;20.60;52.90;;;;;;5100473;28;20036;-37
2023/12/07 05:25:36;;;;;;;0.50;0.30;;;20.50;52.90;;;;;;5096647;28;20035;-39
2023/12/07 05:28:03;;;;;;;0.50;0.45;;;20.50;52.90;;;;;;5100462;28;20028;-36
2023/12/07 05:30:29;;;;;;;0.75;0.50;;;20.60;53.00;;;;;;5101692;28;20043;-37
2023/12/07 05:32:55;;;;;;;0.77;0.70;;;20.60;52.80;;;;;;5099916;28;20065;-37
2023/12/07 05:35:23;;;;;;;0.68;0.40;;;20.60;52.90;;;;;;5101405;28;20032;-36
2023/12/07 05:37:50;;;;;;;0.50;0.40;;;20.50;52.80;;;;;;5097609;28;20122;-37
2023/12/07 05:40:16;;;;;;;0.45;0.40;;;20.50;52.90;;;;;;5102462;28;20026;-37
2023/12/07 05:42:42;;;;;;;0.63;0.50;;;20.50;53.40;;;;;;5101101;28;20096;-37
2023/12/07 05:45:09;;;;;;;0.70;0.70;;;20.60;52.90;;;;;;5098208;28;20092;-37
2023/12/07 05:47:36;;;;;;;0.55;0.40;;;20.60;52.80;;;;;;5096985;28;20028;-41
2023/12/07 05:50:03;;;;;;;0.30;0.30;;;20.60;52.60;;;;;;5098923;28;20062;-37
2023/12/07 05:52:29;;;;;;;0.40;0.40;;;20.60;52.80;;;;;;5100844;28;20146;-37
2023/12/07 05:54:55;;;;;;;0.50;0.40;;;20.50;52.90;;;;;;5100067;28;20040;-37
2023/12/07 05:57:21;;;;;;;0.40;0.30;;;20.50;52.70;;;;;;5097138;28;20032;-37
2023/12/07 05:59:48;;;;;;;0.60;0.45;;;20.50;52.80;;;;;;5100450;28;20024;-38
2023/12/07 06:02:14;;;;;;;0.40;0.30;;;20.50;52.70;;;;;;5099148;28;20869;-38
2023/12/07 06:04:41;;;;;;;0.90;0.60;;;20.60;52.70;;;;;;5102691;28;20032;-38
2023/12/07 06:07:07;;;;;;;0.55;0.40;;;20.60;52.40;;;;;;5099843;28;20036;-38
2023/12/07 06:09:34;;;;;;;0.70;0.60;;;20.50;52.70;;;;;;5098963;28;20040;-37
2023/12/07 06:12:00;;;;;;;0.43;0.40;;;20.50;52.80;;;;;;5097773;28;20114;-37
2023/12/07 06:14:26;;;;;;;0.68;0.40;;;20.40;52.60;;;;;;5099768;28;20043;-37
2023/12/07 06:16:52;;;;;;;0.60;0.40;;;20.50;52.70;;;;;;5094472;28;20020;-37
2023/12/07 06:19:18;;;;;;;1.92;0.60;;;20.50;52.70;;;;;;5100494;28;20049;-37
2023/12/07 06:21:44;;;;;;;0.70;0.40;;;20.60;52.70;;;;;;5097642;28;20031;-37
2023/12/07 06:24:11;;;;;;;0.52;0.40;;;20.50;52.70;;;;;;5099483;28;20031;-38
2023/12/07 06:26:37;;;;;;;0.50;0.30;;;20.50;52.80;;;;;;5102210;28;20115;-37
2023/12/07 06:29:03;;;;;;;0.55;0.45;;;20.40;52.80;;;;;;5098526;28;20024;-38
2023/12/07 06:31:29;;;;;;;0.90;0.55;;;20.40;52.80;;;;;;5098393;28;20047;-38
2023/12/07 06:33:55;;;;;;;0.47;0.40;;;20.50;52.80;;;;;;5096686;28;20028;-38
2023/12/07 06:36:22;;;;;;;0.80;0.50;;;20.50;52.80;;;;;;5096110;28;20062;-38
2023/12/07 06:38:48;;;;;;;0.70;0.60;;;20.50;52.70;;;;;;5098826;28;20036;-38
2023/12/07 06:41:15;;;;;;;0.95;0.40;;;20.50;52.60;;;;;;5099726;28;20033;-38
2023/12/07 06:43:43;;;;;;;0.52;0.50;;;20.40;52.70;;;;;;5098945;28;20058;-38
2023/12/07 06:46:13;;;;;;;0.77;0.60;;;20.40;52.90;;;;;;5100762;28;20054;-38
2023/12/07 06:48:40;;;;;;;0.55;0.32;;;20.30;52.70;;;;;;5096262;28;20024;-38
2023/12/07 06:51:06;;;;;;;0.40;0.40;;;20.40;52.70;;;;;;5097733;28;20420;-38
2023/12/07 06:53:32;;;;;;;0.50;0.40;;;20.50;52.70;;;;;;5102756;28;20040;-38
2023/12/07 06:55:59;;;;;;;0.75;0.40;;;20.50;52.50;;;;;;5099435;28;20032;-38
2023/12/07 06:58:25;;;;;;;0.52;0.40;;;20.40;52.70;;;;;;5103664;28;20028;-38
2023/12/07 07:00:51;;;;;;;0.60;0.40;;;20.30;52.80;;;;;;5100316;28;20036;-38
2023/12/07 07:03:17;;;;;;;0.70;0.50;;;20.30;52.60;;;;;;5096388;28;20024;-38
2023/12/07 07:05:43;;;;;;;0.70;0.43;;;20.40;52.70;;;;;;5097847;28;20056;-38
2023/12/07 07:08:10;;;;;;;0.40;0.40;;;20.40;52.70;;;;;;5099671;28;20043;-38
2023/12/07 07:10:36;;;;;;;0.30;0.30;;;20.50;52.60;;;;;;5103409;28;20059;-38
2023/12/07 07:13:05;;;;;;;0.80;0.40;;;20.40;52.60;;;;;;5104153;28;20039;-38
2023/12/07 07:15:32;;;;;;;0.50;0.40;;;20.30;52.80;;;;;;5104400;28;20024;-38
2023/12/07 07:17:58;;;;;;;0.50;0.40;;;20.30;52.60;;;;;;5102869;28;20035;-38
2023/12/07 07:20:25;;;;;;;0.60;0.47;;;20.30;52.70;;;;;;5099633;28;20073;-38
2023/12/07 07:22:51;;;;;;;0.57;0.47;;;20.40;52.70;;;;;;5101052;28;20060;-38
2023/12/07 07:25:19;;;;;;;0.50;0.50;;;20.40;52.60;;;;;;5102573;28;20039;-38
2023/12/07 07:27:46;;;;;;;1.38;0.55;;;20.40;52.30;;;;;;5100383;28;20036;-38
2023/12/07 07:30:12;;;;;;;0.40;0.40;;;20.30;52.60;;;;;;5094915;28;20771;-38
2023/12/07 07:32:38;;;;;;;0.90;0.50;;;20.30;52.80;;;;;;5102757;28;20696;-38
2023/12/07 07:35:05;;;;;;;0.68;0.60;;;20.30;52.60;;;;;;5102510;28;20028;-38
2023/12/07 07:37:31;;;;;;;0.80;0.60;;;20.30;52.60;;;;;;5101564;28;20034;-38
2023/12/07 07:39:57;;;;;;;0.60;0.32;;;20.40;52.50;;;;;;5101026;28;20088;-38
2023/12/07 07:42:23;;;;;;;2.38;0.60;;;20.40;52.30;;;;;;5096970;28;20052;-38
2023/12/07 07:44:49;;;;;;;0.65;0.52;;;20.30;52.60;;;;;;5102644;28;20096;-38
2023/12/07 07:47:15;;;;;;;0.80;0.50;;;20.30;52.80;;;;;;5103550;28;20067;-38
2023/12/07 07:49:41;;;;;;;0.45;0.40;;;20.20;52.50;;;;;;5101772;28;20028;-38
2023/12/07 07:52:08;;;;;;;0.82;0.50;;;20.20;52.70;;;;;;5102826;28;20055;-39
2023/12/07 07:54:34;;;;;;;0.60;0.50;;;20.30;52.70;;;;;;5102334;28;20042;-39
2023/12/07 07:57:00;;;;;;;0.50;0.45;;;20.30;52.60;;;;;;5103033;28;20318;-38
2023/12/07 07:59:26;;;;;;;0.55;0.40;;;20.40;52.40;;;;;;5103144;28;20035;-36
2023/12/07 08:01:53;;;;;;;0.60;0.43;;;20.40;52.90;;;;;;5102101;28;20048;-38
2023/12/07 08:04:19;;;;;;;0.73;0.43;;;20.30;52.60;;;;;;5097352;28;20039;-37
2023/12/07 08:06:45;;;;;;;1.15;0.60;;;20.30;52.50;;;;;;5099856;28;20571;-38
2023/12/07 08:09:11;;;;;;;2.15;0.60;;;20.30;52.30;;;;;;5099698;28;20598;-38
2023/12/07 08:11:37;;;;;;;0.75;0.40;;;20.40;52.40;;;;;;5100031;28;20147;-38
2023/12/07 08:14:03;;;;;;;0.60;0.52;;;20.50;52.50;;;;;;5101954;28;20024;-38
2023/12/07 08:16:29;;;;;;;0.63;0.50;;;20.50;52.40;;;;;;5101115;28;20036;-39
2023/12/07 08:18:56;;;;;;;3.10;0.70;;;20.50;52.60;;;;;;5097316;28;20122;-40
2023/12/07 08:21:22;;;;;;;0.63;0.40;;;20.30;52.60;;;;;;5101576;28;20023;-42
2023/12/07 08:23:48;;;;;;;1.33;0.80;;;20.30;52.50;;;;;;5100319;28;20165;-39
2023/12/07 08:26:15;;;;;;;0.85;0.50;;;20.30;52.50;;;;;;5099731;28;20039;-38
2023/12/07 08:28:42;;;;;;;0.80;0.60;;;20.40;52.60;;;;;;5096287;28;20083;-39
2023/12/07 08:31:08;;;;;;;0.82;0.55;;;20.40;52.50;;;;;;5101622;28;20044;-39
2023/12/07 08:33:34;;;;;;;1.27;0.68;;;20.40;52.50;;;;;;5095220;28;20024;-39
2023/12/07 08:36:01;;;;;;;0.50;0.40;;;20.40;52.70;;;;;;5100024;28;20115;-38
2023/12/07 08:38:27;;;;;;;0.80;0.60;;;20.30;52.60;;;;;;5102872;28;20031;-38
2023/12/07 08:40:53;;;;;;;0.52;0.50;;;20.20;52.60;;;;;;5101451;28;20139;-39
2023/12/07 08:43:23;;;;;;;0.90;0.50;;;20.30;52.60;;;;;;5101629;28;20074;-38
2023/12/07 08:45:52;;;;;;;0.50;0.50;;;20.40;52.60;;;;;;5101574;28;20070;-38
2023/12/07 08:48:20;;;;;;;0.82;0.40;;;20.40;52.50;;;;;;5102336;28;20024;-38
2023/12/07 08:50:46;;;;;;;0.65;0.47;;;20.30;53.20;;;;;;5102063;28;20051;-38
2023/12/07 08:53:12;;;;;;;0.50;0.40;;;20.20;53.20;;;;;;5099222;28;20029;-38
2023/12/07 08:55:39;;;;;;;0.73;0.52;;;20.20;52.60;;;;;;5101269;28;20027;-38
2023/12/07 08:58:06;;;;;;;1.77;0.32;;;20.20;52.60;;;;;;5099703;28;20040;-38
2023/12/07 09:00:32;;;;;;;0.50;0.45;;;20.30;52.60;;;;;;5098636;28;20039;-38
2023/12/07 09:02:59;;;;;;;0.95;0.50;;;20.40;52.50;;;;;;5101540;28;20056;-38
2023/12/07 09:05:26;;;;;;;0.57;0.45;;;20.40;52.40;;;;;;5101565;28;20029;-38
2023/12/07 09:07:52;;;;;;;0.70;0.50;;;20.40;52.60;;;;;;5094016;28;20120;-38
2023/12/07 09:10:19;;;;;;;1.00;0.70;;;20.30;52.60;;;;;;5096605;28;20028;-41
2023/12/07 09:12:45;;;;;;;0.50;0.50;;;20.20;52.60;;;;;;5102562;28;20035;-38
2023/12/07 09:15:12;;;;;;;0.93;0.60;;;20.20;52.50;;;;;;5099946;28;20028;-38
2023/12/07 09:17:41;;;;;;;0.43;0.40;;;20.30;52.60;;;;;;5102270;28;20119;-38
2023/12/07 09:20:14;;;;;;;0.52;0.50;;;20.40;52.50;;;;;;5101159;28;20376;-38
2023/12/07 09:22:48;;;;;;;0.40;0.40;;;20.40;52.30;;;;;;5101072;28;20035;-38
2023/12/07 09:25:15;;;;;;;0.90;0.55;;;20.40;52.50;;;;;;5100299;28;20040;-38
2023/12/07 09:27:41;;;;;;;;;;;20.20;52.60;;;;;;5102893;28;20023;-39
2023/12/07 09:30:10;;;;;;;1.17;0.50;;;20.20;52.70;;;;;;5101136;28;19908;-39
2023/12/07 09:32:45;;;;;;;1.95;0.50;;;20.30;52.60;;;;;;5101674;28;20047;-39
2023/12/07 09:35:21;;;;;;;0.80;0.50;;;20.30;52.50;;;;;;5097276;28;20028;-39
2023/12/07 09:37:48;;;;;;;0.70;0.45;;;20.40;52.50;;;;;;5102381;28;20032;-38
2023/12/07 09:40:18;;;;;;;;;;;20.40;52.30;;;;;;5100265;28;20034;-38
2023/12/07 09:42:44;;;;;;;0.85;0.52;;;20.30;52.50;;;;;;5096364;28;19916;-38
2023/12/07 09:45:11;;;;;;;0.40;0.40;;;20.20;52.50;;;;;;5101574;28;20028;-38
2023/12/07 09:47:40;;;;;;;0.60;0.52;;;20.20;52.40;;;;;;5101941;28;20020;-39
2023/12/07 09:50:08;;;;;;;1.90;0.47;;;20.20;52.50;;;;;;5100263;28;20024;-40
2023/12/07 09:52:35;;;;;;;0.50;0.40;;;20.30;52.50;;;;;;5100163;28;20039;-39
2023/12/07 09:55:02;;;;;;;0.50;0.50;;;20.40;52.50;;;;;;5099046;28;20377;-38
2023/12/07 09:57:29;;;;;;;0.52;0.50;;;20.40;52.60;;;;;;5099782;28;20043;-38
2023/12/07 09:59:55;;;;;;;0.60;0.50;;;20.30;53.00;;;;;;5100646;28;20032;-38
2023/12/07 10:02:22;;;;;;;0.70;0.52;;;20.20;52.50;;;;;;5100719;28;20043;-38
2023/12/07 10:04:49;;;;;;;0.40;0.40;;;20.20;52.40;;;;;;5100412;28;20100;-38
2023/12/07 10:07:15;;;;;;;0.70;0.50;;;20.20;52.90;;;;;;5098151;28;20028;-38
2023/12/07 10:09:42;;;;;;;0.70;0.50;;;20.30;52.40;;;;;;5100873;28;20039;-39
2023/12/07 10:12:08;;;;;;;0.50;0.40;;;20.40;52.40;;;;;;5099631;28;20040;-38
2023/12/07 10:14:35;;;;;;;0.47;0.47;;;20.30;52.30;;;;;;5104954;28;20036;-38
2023/12/07 10:17:01;;;;;;;0.57;0.50;;;20.30;52.40;;;;;;5103564;28;20288;-37
2023/12/07 10:19:27;;;;;;;0.50;0.50;;;20.20;52.60;;;;;;5101776;28;20028;-38
2023/12/07 10:21:54;;;;;;;0.63;0.50;;;20.20;52.50;;;;;;5101755;28;20036;-38
2023/12/07 10:24:21;;;;;;;0.43;0.43;;;20.20;52.50;;;;;;5103566;28;20040;-38
2023/12/07 10:26:47;;;;;;;;;;;20.20;52.40;;;;;;5103666;28;20697;-38
2023/12/07 10:29:13;;;;;;;0.77;0.50;;;20.30;52.40;;;;;;5103758;28;19923;-38
2023/12/07 10:31:40;;;;;;;0.63;0.40;;;20.30;52.20;;;;;;5103870;28;20032;-39
2023/12/07 10:34:06;;;;;;;1.27;0.60;;;20.30;52.40;;;;;;5104106;28;20024;-38
2023/12/07 10:36:32;;;;;;;0.40;0.40;;;20.20;52.50;;;;;;5104923;28;20101;-39
2023/12/07 10:38:59;;;;;;;0.70;0.50;;;20.20;52.40;;;;;;5103208;28;20032;-38
2023/12/07 10:41:25;;;;;;;0.55;0.47;;;20.20;52.50;;;;;;5103433;28;20055;-38
2023/12/07 10:43:59;;;;;;;0.80;0.60;;;20.30;52.40;;;;;;5103779;28;20124;-38
2023/12/07 10:46:26;;;;;;;0.50;0.50;;;20.30;52.30;;;;;;5103176;28;20036;-38
2023/12/07 10:48:57;;;;;;;0.85;0.50;;;20.30;52.30;;;;;;5102082;28;20032;-37
2023/12/07 10:51:38;;;;;;;0.43;0.40;;;20.20;52.40;;;;;;5103381;28;20117;-37
2023/12/07 10:54:05;;;;;;;0.60;0.50;;;20.20;52.40;;;;;;5103680;28;20119;-38
2023/12/07 10:56:42;;;;;;;0.75;0.50;;;20.20;52.30;;;;;;5084936;28;20035;-38
2023/12/07 10:59:15;;;;;;;0.98;0.60;;;20.20;52.40;;;;;;5104198;28;20523;-39
2023/12/07 11:01:42;;;;;;;0.47;0.47;;;20.30;52.40;;;;;;5102769;28;20049;-39
2023/12/07 11:04:12;;;;;;;0.85;0.40;;;20.40;52.40;;;;;;5103028;28;20024;-39
2023/12/07 11:06:39;;;;;;;0.47;0.43;;;20.30;52.40;;;;;;5098465;28;20044;-39
2023/12/07 11:09:16;;;;;;;0.68;0.55;;;20.30;52.40;;;;;;5101677;28;20031;-39
2023/12/07 11:12:15;;;;;;;1.65;0.40;;;20.20;52.60;;;;;;5104674;28;20036;-39
2023/12/07 11:14:41;;;;;;;0.40;0.40;;;20.10;52.30;;;;;;5060503;28;20072;-39
2023/12/07 11:17:07;;;;;;;0.60;0.57;;;20.20;52.40;;;;;;5054756;28;20538;-39
2023/12/07 11:19:35;;;;;;;0.60;0.47;;;20.30;52.40;;;;;;5025372;28;20068;-39
2023/12/07 11:22:08;;;;;;;0.85;0.50;;;20.30;52.30;;;;;;5049518;28;20033;-39
2023/12/07 11:24:35;;;;;;;0.70;0.57;;;20.30;52.30;;;;;;5051146;28;20049;-38
2023/12/07 11:27:02;;;;;;;0.40;0.40;;;20.30;52.40;;;;;;5056627;28;20108;-39
2023/12/07 11:29:31;;;;;;;0.85;0.40;;;20.20;52.50;;;;;;5060652;28;20067;-39
2023/12/07 11:32:01;;;;;;;0.50;0.40;;;20.10;52.30;;;;;;5055515;28;20068;-39
2023/12/07 11:34:40;;;;;;;1.17;0.50;;;20.20;52.40;;;;;;5054304;28;20051;-39
2023/12/07 11:37:09;;;;;;;0.40;0.40;;;20.20;52.30;;;;;;5055678;28;20108;-39
2023/12/07 11:39:41;;;;;;;0.60;0.50;;;20.30;52.30;;;;;;5057320;28;20099;-39
2023/12/07 11:42:11;;;;;;;0.47;0.30;;;20.40;52.30;;;;;;5053261;28;20108;-38
2023/12/07 11:44:38;;;;;;;1.17;0.43;;;20.30;52.20;;;;;;5053015;28;20045;-39
2023/12/07 11:47:05;;;;;;;0.80;0.60;;;20.30;52.50;;;;;;5042415;28;20025;-39
2023/12/07 11:49:31;;;;;;;0.55;0.50;;;20.20;52.50;;;;;;5060526;28;20033;-39
2023/12/07 11:52:01;;;;;;;1.57;0.50;;;20.20;52.40;;;;;;5098688;28;20067;-39
2023/12/07 11:54:27;;;;;;;0.70;0.50;;;20.20;52.40;;;;;;5098540;28;20273;-40
2023/12/07 11:56:57;;;;;;;1.83;0.40;;;20.30;52.40;;;;;;5102343;28;20031;-40
2023/12/07 11:59:25;;;;;;;1.15;0.60;;;20.40;52.30;;;;;;5098633;28;22242;-40
2023/12/07 12:01:51;;;;;;;0.90;0.50;;;20.30;52.30;;;;;;5097784;28;20647;-40
2023/12/07 12:04:18;;;;;;;0.80;0.52;;;20.20;52.40;;;;;;5101205;28;20032;-40
2023/12/07 12:06:45;;;;;;;0.50;0.50;;;20.20;52.50;;;;;;5096667;28;20031;-40
2023/12/07 12:09:17;;;;;;;0.40;0.38;;;20.20;52.40;;;;;;5101041;28;20166;-40
2023/12/07 12:11:49;;;;;;;0.40;0.40;;;20.20;52.40;;;;;;5099961;28;20066;-40
2023/12/07 12:14:16;;;;;;;0.50;0.50;;;20.30;52.30;;;;;;5095746;28;20035;-40
2023/12/07 12:16:46;;;;;;;0.55;0.52;;;20.40;52.30;;;;;;5096317;28;20051;-40
2023/12/07 12:19:14;;;;;;;0.50;0.40;;;20.30;52.30;;;;;;5099065;28;20396;-40
2023/12/07 12:21:40;;;;;;;0.90;0.60;;;20.30;52.40;;;;;;5098726;28;20615;-40
2023/12/07 12:24:08;;;;;;;0.68;0.50;;;20.20;52.50;;;;;;5097347;28;20032;-40
2023/12/07 12:26:35;;;;;;;0.85;0.60;;;20.20;52.30;;;;;;5099389;28;20043;-40
2023/12/07 12:29:01;;;;;;;1.25;0.45;;;20.20;52.30;;;;;;5099882;28;20028;-40
2023/12/07 12:31:28;;;;;;;0.90;0.40;;;20.30;52.20;;;;;;5095238;28;20036;-40
2023/12/07 12:33:55;;;;;;;1.65;0.50;;;20.30;52.20;;;;;;5099880;28;20130;-40
2023/12/07 12:36:23;;;;;;;0.67;0.40;;;20.30;52.10;;;;;;5097180;28;20036;-41
2023/12/07 12:38:52;;;;;;;0.40;0.40;;;20.20;52.20;;;;;;5100277;28;20680;-40
2023/12/07 12:41:22;;;;;;;0.70;0.50;;;20.20;52.30;;;;;;5096243;28;20050;-39
2023/12/07 12:43:48;;;;;;;0.68;0.60;;;20.20;52.10;;;;;;5097710;28;20020;-40
2023/12/07 12:46:15;;;;;;;0.43;0.40;;;20.20;52.30;;;;;;5097249;28;20974;-40
2023/12/07 12:49:00;;;;;;;0.40;0.40;;;20.30;52.20;;;;;;5099898;28;20051;-40
2023/12/07 12:51:32;;;;;;;0.52;0.50;;;20.30;52.10;;;;;;5098544;28;20082;-40
2023/12/07 12:53:59;;;;;;;0.50;0.50;;;20.40;51.90;;;;;;5099971;28;20020;-39
2023/12/07 12:56:25;;;;;;;;;;;20.30;52.20;;;;;;5096460;28;20032;-39
2023/12/07 12:58:52;;;;;;;0.73;0.40;;;20.30;52.20;;;;;;5097119;28;19908;-39
2023/12/07 13:01:18;;;;;;;2.35;0.47;;;20.20;52.20;;;;;;5096347;28;20020;-40